sensor_id;sensor_type;location;lat;lon;timestamp;P1;durP1;ratioP1;P2;durP2;ratioP2
32734;SDS011;19112;51.076;3.706;2024-03-02T00:00:29;8.30;;;1.48;;
32734;SDS011;19112;51.076;3.706;2024-03-02T00:02:56;8.07;;;1.52;;
32734;SDS011;19112;51.076;3.706;2024-03-02T00:05:28;1.58;;;1.10;;
32734;SDS011;19112;51.076;3.706;2024-03-02T00:15:39;5.45;;;1.58;;
32734;SDS011;19112;51.076;3.706;2024-03-02T00:18:27;2.60;;;1.48;;
32734;SDS011;19112;51.076;3.706;2024-03-02T00:20:58;2.30;;;1.17;;
32734;SDS011;19112;51.076;3.706;2024-03-02T00:23:34;5.03;;;1.60;;
32734;SDS011;19112;51.076;3.706;2024-03-02T00:26:01;5.13;;;1.40;;
32734;SDS011;19112;51.076;3.706;2024-03-02T00:28:32;2.97;;;1.45;;
32734;SDS011;19112;51.076;3.706;2024-03-02T00:33:34;2.72;;;1.30;;
32734;SDS011;19112;51.076;3.706;2024-03-02T00:36:02;5.63;;;1.70;;
32734;SDS011;19112;51.076;3.706;2024-03-02T00:38:32;3.08;;;1.33;;
32734;SDS011;19112;51.076;3.706;2024-03-02T00:41:06;2.50;;;1.30;;
32734;SDS011;19112;51.076;3.706;2024-03-02T00:46:05;4.78;;;1.13;;
32734;SDS011;19112;51.076;3.706;2024-03-02T00:48:32;3.40;;;1.25;;
32734;SDS011;19112;51.076;3.706;2024-03-02T00:51:01;4.90;;;1.05;;
32734;SDS011;19112;51.076;3.706;2024-03-02T00:53:31;2.08;;;1.05;;
32734;SDS011;19112;51.076;3.706;2024-03-02T00:55:58;2.45;;;1.05;;
32734;SDS011;19112;51.076;3.706;2024-03-02T00:58:24;4.55;;;1.45;;
32734;SDS011;19112;51.076;3.706;2024-03-02T01:00:50;5.95;;;1.60;;
32734;SDS011;19112;51.076;3.706;2024-03-02T01:03:16;2.42;;;1.42;;
32734;SDS011;19112;51.076;3.706;2024-03-02T01:05:42;4.88;;;1.55;;
32734;SDS011;19112;51.076;3.706;2024-03-02T01:08:11;2.58;;;1.45;;
32734;SDS011;19112;51.076;3.706;2024-03-02T01:10:39;5.32;;;1.23;;
32734;SDS011;19112;51.076;3.706;2024-03-02T01:13:07;2.42;;;1.55;;
32734;SDS011;19112;51.076;3.706;2024-03-02T01:15:34;3.42;;;1.50;;
32734;SDS011;19112;51.076;3.706;2024-03-02T01:17:59;3.70;;;1.60;;
32734;SDS011;19112;51.076;3.706;2024-03-02T01:20:27;5.60;;;1.42;;
32734;SDS011;19112;51.076;3.706;2024-03-02T01:22:55;2.42;;;1.65;;
32734;SDS011;19112;51.076;3.706;2024-03-02T01:25:21;4.03;;;1.52;;
32734;SDS011;19112;51.076;3.706;2024-03-02T01:27:47;5.60;;;1.90;;
32734;SDS011;19112;51.076;3.706;2024-03-02T01:30:13;5.97;;;1.88;;
32734;SDS011;19112;51.076;3.706;2024-03-02T01:32:39;3.58;;;1.80;;
32734;SDS011;19112;51.076;3.706;2024-03-02T01:35:05;7.72;;;1.75;;
32734;SDS011;19112;51.076;3.706;2024-03-02T01:37:32;6.38;;;1.75;;
32734;SDS011;19112;51.076;3.706;2024-03-02T01:39:58;7.15;;;1.73;;
32734;SDS011;19112;51.076;3.706;2024-03-02T01:42:24;4.50;;;2.13;;
32734;SDS011;19112;51.076;3.706;2024-03-02T01:44:50;3.78;;;1.75;;
32734;SDS011;19112;51.076;3.706;2024-03-02T01:47:16;6.60;;;2.13;;
32734;SDS011;19112;51.076;3.706;2024-03-02T01:49:42;5.43;;;2.10;;
32734;SDS011;19112;51.076;3.706;2024-03-02T01:52:08;6.72;;;2.00;;
32734;SDS011;19112;51.076;3.706;2024-03-02T01:54:34;7.32;;;2.17;;
32734;SDS011;19112;51.076;3.706;2024-03-02T01:57:00;7.20;;;2.65;;
32734;SDS011;19112;51.076;3.706;2024-03-02T01:59:28;6.85;;;2.42;;
32734;SDS011;19112;51.076;3.706;2024-03-02T02:01:54;5.97;;;2.10;;
32734;SDS011;19112;51.076;3.706;2024-03-02T02:04:20;6.25;;;2.10;;
32734;SDS011;19112;51.076;3.706;2024-03-02T02:06:52;8.20;;;2.22;;
32734;SDS011;19112;51.076;3.706;2024-03-02T02:09:17;6.40;;;2.60;;
32734;SDS011;19112;51.076;3.706;2024-03-02T02:11:43;9.38;;;2.80;;
32734;SDS011;19112;51.076;3.706;2024-03-02T02:14:09;9.93;;;3.05;;
32734;SDS011;19112;51.076;3.706;2024-03-02T02:16:36;6.93;;;2.70;;
32734;SDS011;19112;51.076;3.706;2024-03-02T02:19:02;5.10;;;2.58;;
32734;SDS011;19112;51.076;3.706;2024-03-02T02:21:28;11.40;;;2.90;;
32734;SDS011;19112;51.076;3.706;2024-03-02T02:23:54;6.72;;;2.78;;
32734;SDS011;19112;51.076;3.706;2024-03-02T02:26:21;9.63;;;3.03;;
32734;SDS011;19112;51.076;3.706;2024-03-02T02:28:48;8.00;;;3.55;;
32734;SDS011;19112;51.076;3.706;2024-03-02T02:31:14;12.07;;;3.08;;
32734;SDS011;19112;51.076;3.706;2024-03-02T02:33:40;9.60;;;3.90;;
32734;SDS011;19112;51.076;3.706;2024-03-02T02:36:07;10.35;;;3.08;;
32734;SDS011;19112;51.076;3.706;2024-03-02T02:38:33;8.40;;;3.20;;
32734;SDS011;19112;51.076;3.706;2024-03-02T02:41:02;10.05;;;3.25;;
32734;SDS011;19112;51.076;3.706;2024-03-02T02:43:28;10.18;;;3.30;;
32734;SDS011;19112;51.076;3.706;2024-03-02T02:45:57;9.00;;;3.22;;
32734;SDS011;19112;51.076;3.706;2024-03-02T02:48:23;9.07;;;3.63;;
32734;SDS011;19112;51.076;3.706;2024-03-02T02:50:48;13.45;;;3.50;;
32734;SDS011;19112;51.076;3.706;2024-03-02T02:53:17;10.25;;;3.10;;
32734;SDS011;19112;51.076;3.706;2024-03-02T02:55:45;7.28;;;2.75;;
32734;SDS011;19112;51.076;3.706;2024-03-02T02:58:14;10.50;;;3.10;;
32734;SDS011;19112;51.076;3.706;2024-03-02T03:00:40;9.52;;;3.20;;
32734;SDS011;19112;51.076;3.706;2024-03-02T03:03:09;6.72;;;2.63;;
32734;SDS011;19112;51.076;3.706;2024-03-02T03:05:41;11.73;;;3.33;;
32734;SDS011;19112;51.076;3.706;2024-03-02T03:08:07;10.63;;;2.78;;
32734;SDS011;19112;51.076;3.706;2024-03-02T03:10:40;14.48;;;3.22;;
32734;SDS011;19112;51.076;3.706;2024-03-02T03:13:09;10.70;;;3.00;;
32734;SDS011;19112;51.076;3.706;2024-03-02T03:15:38;12.77;;;2.80;;
32734;SDS011;19112;51.076;3.706;2024-03-02T03:18:09;19.20;;;3.28;;
32734;SDS011;19112;51.076;3.706;2024-03-02T03:20:35;9.77;;;3.00;;
32734;SDS011;19112;51.076;3.706;2024-03-02T03:23:07;10.63;;;3.13;;
32734;SDS011;19112;51.076;3.706;2024-03-02T03:25:36;6.90;;;2.78;;
32734;SDS011;19112;51.076;3.706;2024-03-02T03:28:08;8.20;;;2.58;;
32734;SDS011;19112;51.076;3.706;2024-03-02T03:30:39;6.30;;;2.95;;
32734;SDS011;19112;51.076;3.706;2024-03-02T03:33:06;8.27;;;2.72;;
32734;SDS011;19112;51.076;3.706;2024-03-02T03:35:32;8.95;;;2.50;;
32734;SDS011;19112;51.076;3.706;2024-03-02T03:37:58;6.93;;;2.53;;
32734;SDS011;19112;51.076;3.706;2024-03-02T03:40:27;11.98;;;2.75;;
32734;SDS011;19112;51.076;3.706;2024-03-02T03:42:53;10.27;;;2.80;;
32734;SDS011;19112;51.076;3.706;2024-03-02T03:45:19;5.35;;;2.42;;
32734;SDS011;19112;51.076;3.706;2024-03-02T03:47:45;8.40;;;2.78;;
32734;SDS011;19112;51.076;3.706;2024-03-02T03:50:11;5.57;;;2.25;;
32734;SDS011;19112;51.076;3.706;2024-03-02T03:52:37;11.43;;;2.70;;
32734;SDS011;19112;51.076;3.706;2024-03-02T03:55:03;6.10;;;2.40;;
32734;SDS011;19112;51.076;3.706;2024-03-02T03:57:30;10.60;;;2.60;;
32734;SDS011;19112;51.076;3.706;2024-03-02T03:59:56;4.32;;;2.15;;
32734;SDS011;19112;51.076;3.706;2024-03-02T04:04:52;7.00;;;2.30;;
32734;SDS011;19112;51.076;3.706;2024-03-02T04:07:19;4.75;;;2.30;;
32734;SDS011;19112;51.076;3.706;2024-03-02T04:09:48;8.10;;;2.25;;
32734;SDS011;19112;51.076;3.706;2024-03-02T04:12:15;8.43;;;2.28;;
32734;SDS011;19112;51.076;3.706;2024-03-02T04:14:42;10.45;;;2.28;;
32734;SDS011;19112;51.076;3.706;2024-03-02T04:17:08;7.70;;;2.10;;
32734;SDS011;19112;51.076;3.706;2024-03-02T04:19:36;8.40;;;2.00;;
32734;SDS011;19112;51.076;3.706;2024-03-02T04:22:02;8.65;;;2.05;;
32734;SDS011;19112;51.076;3.706;2024-03-02T04:24:28;7.20;;;1.95;;
32734;SDS011;19112;51.076;3.706;2024-03-02T04:26:55;6.80;;;2.25;;
32734;SDS011;19112;51.076;3.706;2024-03-02T04:29:21;13.55;;;2.53;;
32734;SDS011;19112;51.076;3.706;2024-03-02T04:31:46;6.28;;;2.10;;
32734;SDS011;19112;51.076;3.706;2024-03-02T04:34:12;8.48;;;2.40;;
32734;SDS011;19112;51.076;3.706;2024-03-02T04:36:38;6.18;;;2.42;;
32734;SDS011;19112;51.076;3.706;2024-03-02T04:39:04;9.95;;;2.65;;
32734;SDS011;19112;51.076;3.706;2024-03-02T04:41:30;7.15;;;2.33;;
32734;SDS011;19112;51.076;3.706;2024-03-02T04:43:55;14.02;;;2.60;;
32734;SDS011;19112;51.076;3.706;2024-03-02T04:46:21;8.75;;;2.50;;
32734;SDS011;19112;51.076;3.706;2024-03-02T04:48:49;6.22;;;2.35;;
32734;SDS011;19112;51.076;3.706;2024-03-02T04:51:26;10.48;;;2.55;;
32734;SDS011;19112;51.076;3.706;2024-03-02T04:53:52;8.37;;;2.37;;
32734;SDS011;19112;51.076;3.706;2024-03-02T04:56:18;10.55;;;2.03;;
32734;SDS011;19112;51.076;3.706;2024-03-02T04:58:59;11.27;;;2.55;;
32734;SDS011;19112;51.076;3.706;2024-03-02T05:01:25;6.68;;;2.30;;
32734;SDS011;19112;51.076;3.706;2024-03-02T05:06:24;6.63;;;2.30;;
32734;SDS011;19112;51.076;3.706;2024-03-02T05:08:51;9.35;;;2.30;;
32734;SDS011;19112;51.076;3.706;2024-03-02T05:11:17;7.88;;;2.20;;
32734;SDS011;19112;51.076;3.706;2024-03-02T05:14:02;5.03;;;2.00;;
32734;SDS011;19112;51.076;3.706;2024-03-02T05:16:37;7.88;;;2.40;;
32734;SDS011;19112;51.076;3.706;2024-03-02T05:19:06;9.73;;;2.30;;
32734;SDS011;19112;51.076;3.706;2024-03-02T05:21:33;10.25;;;2.35;;
32734;SDS011;19112;51.076;3.706;2024-03-02T05:23:59;10.02;;;2.63;;
32734;SDS011;19112;51.076;3.706;2024-03-02T05:26:26;10.82;;;3.55;;
32734;SDS011;19112;51.076;3.706;2024-03-02T05:28:52;11.75;;;2.17;;
32734;SDS011;19112;51.076;3.706;2024-03-02T05:31:21;13.35;;;2.70;;
32734;SDS011;19112;51.076;3.706;2024-03-02T05:33:46;11.38;;;2.40;;
32734;SDS011;19112;51.076;3.706;2024-03-02T05:36:13;11.55;;;4.07;;
32734;SDS011;19112;51.076;3.706;2024-03-02T05:38:40;5.75;;;1.92;;
32734;SDS011;19112;51.076;3.706;2024-03-02T05:41:06;7.07;;;1.85;;
32734;SDS011;19112;51.076;3.706;2024-03-02T05:43:32;9.07;;;2.10;;
32734;SDS011;19112;51.076;3.706;2024-03-02T05:46:00;9.25;;;2.00;;
32734;SDS011;19112;51.076;3.706;2024-03-02T05:48:27;9.63;;;2.10;;
32734;SDS011;19112;51.076;3.706;2024-03-02T05:50:57;11.90;;;2.28;;
32734;SDS011;19112;51.076;3.706;2024-03-02T05:53:23;11.40;;;2.40;;
32734;SDS011;19112;51.076;3.706;2024-03-02T05:55:51;7.32;;;2.20;;
32734;SDS011;19112;51.076;3.706;2024-03-02T05:58:23;7.85;;;2.30;;
32734;SDS011;19112;51.076;3.706;2024-03-02T06:03:47;10.95;;;2.03;;
32734;SDS011;19112;51.076;3.706;2024-03-02T06:06:14;7.53;;;1.92;;
32734;SDS011;19112;51.076;3.706;2024-03-02T06:08:40;11.63;;;2.28;;
32734;SDS011;19112;51.076;3.706;2024-03-02T06:11:06;11.77;;;2.28;;
32734;SDS011;19112;51.076;3.706;2024-03-02T06:13:32;9.98;;;2.17;;
32734;SDS011;19112;51.076;3.706;2024-03-02T06:15:58;11.77;;;2.47;;
32734;SDS011;19112;51.076;3.706;2024-03-02T06:18:24;9.27;;;2.33;;
32734;SDS011;19112;51.076;3.706;2024-03-02T06:20:50;14.43;;;2.50;;
32734;SDS011;19112;51.076;3.706;2024-03-02T06:23:15;11.80;;;2.95;;
32734;SDS011;19112;51.076;3.706;2024-03-02T06:25:41;9.50;;;2.30;;
32734;SDS011;19112;51.076;3.706;2024-03-02T06:28:07;9.35;;;2.40;;
32734;SDS011;19112;51.076;3.706;2024-03-02T06:30:34;10.10;;;2.90;;
32734;SDS011;19112;51.076;3.706;2024-03-02T06:33:00;11.35;;;2.58;;
32734;SDS011;19112;51.076;3.706;2024-03-02T06:35:25;8.60;;;2.50;;
32734;SDS011;19112;51.076;3.706;2024-03-02T06:37:51;13.10;;;2.72;;
32734;SDS011;19112;51.076;3.706;2024-03-02T06:40:17;9.13;;;2.85;;
32734;SDS011;19112;51.076;3.706;2024-03-02T06:42:43;7.45;;;2.47;;
32734;SDS011;19112;51.076;3.706;2024-03-02T06:45:10;9.70;;;2.47;;
32734;SDS011;19112;51.076;3.706;2024-03-02T06:47:36;6.18;;;2.10;;
32734;SDS011;19112;51.076;3.706;2024-03-02T06:50:02;15.05;;;3.10;;
32734;SDS011;19112;51.076;3.706;2024-03-02T06:52:29;13.98;;;2.75;;
32734;SDS011;19112;51.076;3.706;2024-03-02T06:54:58;9.93;;;2.75;;
32734;SDS011;19112;51.076;3.706;2024-03-02T06:59:54;10.27;;;2.88;;
32734;SDS011;19112;51.076;3.706;2024-03-02T07:02:26;13.55;;;2.40;;
32734;SDS011;19112;51.076;3.706;2024-03-02T07:04:54;13.70;;;2.47;;
32734;SDS011;19112;51.076;3.706;2024-03-02T07:07:22;7.10;;;2.30;;
32734;SDS011;19112;51.076;3.706;2024-03-02T07:09:48;6.68;;;2.00;;
32734;SDS011;19112;51.076;3.706;2024-03-02T07:14:43;8.23;;;2.33;;
32734;SDS011;19112;51.076;3.706;2024-03-02T07:17:30;12.93;;;2.72;;
32734;SDS011;19112;51.076;3.706;2024-03-02T07:19:58;12.90;;;2.95;;
32734;SDS011;19112;51.076;3.706;2024-03-02T07:22:24;12.32;;;2.33;;
32734;SDS011;19112;51.076;3.706;2024-03-02T07:24:49;5.82;;;2.28;;
32734;SDS011;19112;51.076;3.706;2024-03-02T07:27:18;16.38;;;2.90;;
32734;SDS011;19112;51.076;3.706;2024-03-02T07:29:47;8.93;;;2.45;;
32734;SDS011;19112;51.076;3.706;2024-03-02T07:32:16;16.65;;;2.88;;
32734;SDS011;19112;51.076;3.706;2024-03-02T07:34:43;16.55;;;2.80;;
32734;SDS011;19112;51.076;3.706;2024-03-02T07:37:10;13.95;;;2.83;;
32734;SDS011;19112;51.076;3.706;2024-03-02T07:39:39;14.35;;;2.50;;
32734;SDS011;19112;51.076;3.706;2024-03-02T07:42:06;13.45;;;2.05;;
32734;SDS011;19112;51.076;3.706;2024-03-02T07:47:01;17.58;;;2.50;;
32734;SDS011;19112;51.076;3.706;2024-03-02T07:49:33;11.43;;;2.28;;
32734;SDS011;19112;51.076;3.706;2024-03-02T07:51:59;12.00;;;2.35;;
32734;SDS011;19112;51.076;3.706;2024-03-02T07:54:25;12.98;;;1.92;;
32734;SDS011;19112;51.076;3.706;2024-03-02T07:56:51;13.13;;;2.40;;
32734;SDS011;19112;51.076;3.706;2024-03-02T07:59:20;13.98;;;2.65;;
32734;SDS011;19112;51.076;3.706;2024-03-02T08:01:47;14.93;;;2.97;;
32734;SDS011;19112;51.076;3.706;2024-03-02T08:04:15;10.77;;;2.30;;
32734;SDS011;19112;51.076;3.706;2024-03-02T08:06:41;19.52;;;2.88;;
32734;SDS011;19112;51.076;3.706;2024-03-02T08:09:07;7.85;;;2.38;;
32734;SDS011;19112;51.076;3.706;2024-03-02T08:11:36;13.18;;;2.30;;
32734;SDS011;19112;51.076;3.706;2024-03-02T08:14:05;10.85;;;2.25;;
32734;SDS011;19112;51.076;3.706;2024-03-02T08:16:30;10.35;;;2.05;;
32734;SDS011;19112;51.076;3.706;2024-03-02T08:18:57;8.32;;;2.00;;
32734;SDS011;19112;51.076;3.706;2024-03-02T08:21:25;22.25;;;3.05;;
32734;SDS011;19112;51.076;3.706;2024-03-02T08:23:52;15.73;;;2.28;;
32734;SDS011;19112;51.076;3.706;2024-03-02T08:26:19;13.52;;;2.30;;
32734;SDS011;19112;51.076;3.706;2024-03-02T08:28:44;16.42;;;3.13;;
32734;SDS011;19112;51.076;3.706;2024-03-02T08:31:10;13.40;;;2.25;;
32734;SDS011;19112;51.076;3.706;2024-03-02T08:33:36;11.95;;;2.28;;
32734;SDS011;19112;51.076;3.706;2024-03-02T08:36:02;15.02;;;2.97;;
32734;SDS011;19112;51.076;3.706;2024-03-02T08:38:29;16.65;;;2.55;;
32734;SDS011;19112;51.076;3.706;2024-03-02T08:40:55;19.05;;;2.55;;
32734;SDS011;19112;51.076;3.706;2024-03-02T08:43:21;14.43;;;2.47;;
32734;SDS011;19112;51.076;3.706;2024-03-02T08:45:47;16.83;;;2.60;;
32734;SDS011;19112;51.076;3.706;2024-03-02T08:48:14;9.68;;;2.70;;
32734;SDS011;19112;51.076;3.706;2024-03-02T08:50:40;22.90;;;3.00;;
32734;SDS011;19112;51.076;3.706;2024-03-02T08:53:09;16.10;;;2.42;;
32734;SDS011;19112;51.076;3.706;2024-03-02T08:55:36;18.63;;;2.70;;
32734;SDS011;19112;51.076;3.706;2024-03-02T08:58:03;19.02;;;2.67;;
32734;SDS011;19112;51.076;3.706;2024-03-02T09:00:30;15.32;;;2.78;;
32734;SDS011;19112;51.076;3.706;2024-03-02T09:02:59;13.52;;;2.30;;
32734;SDS011;19112;51.076;3.706;2024-03-02T09:05:28;15.63;;;2.90;;
32734;SDS011;19112;51.076;3.706;2024-03-02T09:07:55;19.10;;;2.75;;
32734;SDS011;19112;51.076;3.706;2024-03-02T09:10:20;9.75;;;2.75;;
32734;SDS011;19112;51.076;3.706;2024-03-02T09:12:46;13.70;;;3.05;;
32734;SDS011;19112;51.076;3.706;2024-03-02T09:15:12;11.23;;;2.17;;
32734;SDS011;19112;51.076;3.706;2024-03-02T09:17:38;13.55;;;2.17;;
32734;SDS011;19112;51.076;3.706;2024-03-02T09:20:05;13.95;;;2.63;;
32734;SDS011;19112;51.076;3.706;2024-03-02T09:22:32;12.40;;;2.47;;
32734;SDS011;19112;51.076;3.706;2024-03-02T09:24:57;13.82;;;2.50;;
32734;SDS011;19112;51.076;3.706;2024-03-02T09:27:26;11.50;;;2.40;;
32734;SDS011;19112;51.076;3.706;2024-03-02T09:29:51;14.32;;;3.00;;
32734;SDS011;19112;51.076;3.706;2024-03-02T09:32:17;13.30;;;2.80;;
32734;SDS011;19112;51.076;3.706;2024-03-02T09:34:43;13.77;;;2.85;;
32734;SDS011;19112;51.076;3.706;2024-03-02T09:37:09;12.43;;;2.58;;
32734;SDS011;19112;51.076;3.706;2024-03-02T09:39:36;21.20;;;3.53;;
32734;SDS011;19112;51.076;3.706;2024-03-02T09:42:03;19.58;;;3.20;;
32734;SDS011;19112;51.076;3.706;2024-03-02T09:44:33;17.10;;;3.15;;
32734;SDS011;19112;51.076;3.706;2024-03-02T09:47:03;13.25;;;2.70;;
32734;SDS011;19112;51.076;3.706;2024-03-02T09:49:29;21.45;;;2.53;;
32734;SDS011;19112;51.076;3.706;2024-03-02T09:51:55;11.90;;;2.33;;
32734;SDS011;19112;51.076;3.706;2024-03-02T09:54:21;18.60;;;4.57;;
32734;SDS011;19112;51.076;3.706;2024-03-02T09:56:49;17.25;;;2.60;;
32734;SDS011;19112;51.076;3.706;2024-03-02T09:59:16;13.70;;;2.40;;
32734;SDS011;19112;51.076;3.706;2024-03-02T10:01:55;12.88;;;2.70;;
32734;SDS011;19112;51.076;3.706;2024-03-02T10:04:25;13.23;;;2.63;;
32734;SDS011;19112;51.076;3.706;2024-03-02T10:07:08;13.32;;;2.38;;
32734;SDS011;19112;51.076;3.706;2024-03-02T10:09:36;15.85;;;2.63;;
32734;SDS011;19112;51.076;3.706;2024-03-02T10:12:05;16.02;;;2.20;;
32734;SDS011;19112;51.076;3.706;2024-03-02T10:14:33;13.13;;;2.33;;
32734;SDS011;19112;51.076;3.706;2024-03-02T10:17:06;13.82;;;2.95;;
32734;SDS011;19112;51.076;3.706;2024-03-02T10:19:34;18.23;;;2.97;;
32734;SDS011;19112;51.076;3.706;2024-03-02T10:22:02;15.63;;;2.30;;
32734;SDS011;19112;51.076;3.706;2024-03-02T10:24:43;11.50;;;2.53;;
32734;SDS011;19112;51.076;3.706;2024-03-02T10:27:14;11.73;;;2.00;;
32734;SDS011;19112;51.076;3.706;2024-03-02T10:29:54;13.02;;;2.53;;
32734;SDS011;19112;51.076;3.706;2024-03-02T10:32:22;17.02;;;2.50;;
32734;SDS011;19112;51.076;3.706;2024-03-02T10:34:48;9.93;;;2.40;;
32734;SDS011;19112;51.076;3.706;2024-03-02T10:37:15;16.13;;;2.70;;
32734;SDS011;19112;51.076;3.706;2024-03-02T10:39:42;15.38;;;2.70;;
32734;SDS011;19112;51.076;3.706;2024-03-02T10:42:10;15.18;;;2.30;;
32734;SDS011;19112;51.076;3.706;2024-03-02T10:44:37;11.23;;;2.22;;
32734;SDS011;19112;51.076;3.706;2024-03-02T10:47:04;16.92;;;2.70;;
32734;SDS011;19112;51.076;3.706;2024-03-02T10:49:32;13.25;;;2.25;;
32734;SDS011;19112;51.076;3.706;2024-03-02T10:52:04;12.07;;;2.55;;
32734;SDS011;19112;51.076;3.706;2024-03-02T10:54:32;15.60;;;2.33;;
32734;SDS011;19112;51.076;3.706;2024-03-02T10:57:02;10.32;;;2.58;;
32734;SDS011;19112;51.076;3.706;2024-03-02T11:02:00;11.23;;;2.72;;
32734;SDS011;19112;51.076;3.706;2024-03-02T11:04:31;8.77;;;2.10;;
32734;SDS011;19112;51.076;3.706;2024-03-02T11:07:02;17.98;;;3.20;;
32734;SDS011;19112;51.076;3.706;2024-03-02T11:09:41;9.60;;;2.13;;
32734;SDS011;19112;51.076;3.706;2024-03-02T11:12:36;15.90;;;2.95;;
32734;SDS011;19112;51.076;3.706;2024-03-02T11:15:14;15.60;;;3.03;;
32734;SDS011;19112;51.076;3.706;2024-03-02T11:17:48;12.52;;;2.83;;
32734;SDS011;19112;51.076;3.706;2024-03-02T11:20:14;14.35;;;2.90;;
32734;SDS011;19112;51.076;3.706;2024-03-02T11:22:41;13.65;;;2.42;;
32734;SDS011;19112;51.076;3.706;2024-03-02T11:25:18;18.90;;;3.38;;
32734;SDS011;19112;51.076;3.706;2024-03-02T11:35:32;13.65;;;2.70;;
32734;SDS011;19112;51.076;3.706;2024-03-02T11:38:11;13.10;;;2.40;;
32734;SDS011;19112;51.076;3.706;2024-03-02T11:40:38;12.30;;;2.47;;
32734;SDS011;19112;51.076;3.706;2024-03-02T11:43:07;14.73;;;2.47;;
32734;SDS011;19112;51.076;3.706;2024-03-02T11:48:08;11.25;;;2.20;;
32734;SDS011;19112;51.076;3.706;2024-03-02T11:50:42;13.38;;;2.30;;
32734;SDS011;19112;51.076;3.706;2024-03-02T11:55:45;11.70;;;2.70;;
32734;SDS011;19112;51.076;3.706;2024-03-02T11:58:12;10.85;;;2.45;;
32734;SDS011;19112;51.076;3.706;2024-03-02T12:00:42;13.20;;;2.40;;
32734;SDS011;19112;51.076;3.706;2024-03-02T12:03:12;12.30;;;2.88;;
32734;SDS011;19112;51.076;3.706;2024-03-02T12:05:42;13.38;;;2.30;;
32734;SDS011;19112;51.076;3.706;2024-03-02T12:08:08;14.27;;;2.45;;
32734;SDS011;19112;51.076;3.706;2024-03-02T12:10:37;11.80;;;2.03;;
32734;SDS011;19112;51.076;3.706;2024-03-02T12:13:06;15.48;;;2.38;;
32734;SDS011;19112;51.076;3.706;2024-03-02T12:15:35;14.60;;;3.13;;
32734;SDS011;19112;51.076;3.706;2024-03-02T12:18:03;15.65;;;3.22;;
32734;SDS011;19112;51.076;3.706;2024-03-02T12:20:30;16.10;;;2.63;;
32734;SDS011;19112;51.076;3.706;2024-03-02T12:22:59;8.55;;;2.05;;
32734;SDS011;19112;51.076;3.706;2024-03-02T12:25:27;14.27;;;2.53;;
32734;SDS011;19112;51.076;3.706;2024-03-02T12:27:55;12.63;;;2.67;;
32734;SDS011;19112;51.076;3.706;2024-03-02T12:30:26;11.30;;;2.55;;
32734;SDS011;19112;51.076;3.706;2024-03-02T12:32:56;13.98;;;2.17;;
32734;SDS011;19112;51.076;3.706;2024-03-02T12:35:22;12.02;;;2.13;;
32734;SDS011;19112;51.076;3.706;2024-03-02T12:37:50;11.65;;;2.30;;
32734;SDS011;19112;51.076;3.706;2024-03-02T12:40:18;18.13;;;2.50;;
32734;SDS011;19112;51.076;3.706;2024-03-02T12:42:45;10.18;;;2.58;;
32734;SDS011;19112;51.076;3.706;2024-03-02T12:45:12;7.72;;;1.77;;
32734;SDS011;19112;51.076;3.706;2024-03-02T12:47:39;10.13;;;2.20;;
32734;SDS011;19112;51.076;3.706;2024-03-02T12:50:07;13.38;;;2.53;;
32734;SDS011;19112;51.076;3.706;2024-03-02T12:52:34;9.13;;;1.80;;
32734;SDS011;19112;51.076;3.706;2024-03-02T12:55:04;12.30;;;2.67;;
32734;SDS011;19112;51.076;3.706;2024-03-02T12:57:33;10.05;;;2.20;;
32734;SDS011;19112;51.076;3.706;2024-03-02T13:00:00;11.40;;;2.40;;
32734;SDS011;19112;51.076;3.706;2024-03-02T13:02:34;14.07;;;2.70;;
32734;SDS011;19112;51.076;3.706;2024-03-02T13:05:07;12.85;;;2.47;;
32734;SDS011;19112;51.076;3.706;2024-03-02T13:07:36;10.27;;;2.58;;
32734;SDS011;19112;51.076;3.706;2024-03-02T13:10:03;15.73;;;3.30;;
32734;SDS011;19112;51.076;3.706;2024-03-02T13:12:33;9.95;;;2.40;;
32734;SDS011;19112;51.076;3.706;2024-03-02T13:15:03;10.60;;;2.25;;
32734;SDS011;19112;51.076;3.706;2024-03-02T13:17:31;12.63;;;2.75;;
32734;SDS011;19112;51.076;3.706;2024-03-02T13:20:00;9.23;;;2.30;;
32734;SDS011;19112;51.076;3.706;2024-03-02T13:22:26;11.52;;;2.60;;
32734;SDS011;19112;51.076;3.706;2024-03-02T13:24:52;14.43;;;2.70;;
32734;SDS011;19112;51.076;3.706;2024-03-02T13:27:22;13.55;;;2.72;;
32734;SDS011;19112;51.076;3.706;2024-03-02T13:29:48;10.93;;;2.53;;
32734;SDS011;19112;51.076;3.706;2024-03-02T13:32:15;14.20;;;2.92;;
32734;SDS011;19112;51.076;3.706;2024-03-02T13:34:41;14.27;;;2.80;;
32734;SDS011;19112;51.076;3.706;2024-03-02T13:37:09;17.08;;;2.60;;
32734;SDS011;19112;51.076;3.706;2024-03-02T13:39:35;12.00;;;2.85;;
32734;SDS011;19112;51.076;3.706;2024-03-02T13:42:10;15.32;;;2.90;;
32734;SDS011;19112;51.076;3.706;2024-03-02T13:44:39;13.80;;;2.90;;
32734;SDS011;19112;51.076;3.706;2024-03-02T13:47:05;13.63;;;2.97;;
32734;SDS011;19112;51.076;3.706;2024-03-02T13:49:32;16.00;;;3.20;;
32734;SDS011;19112;51.076;3.706;2024-03-02T13:52:10;15.90;;;3.20;;
32734;SDS011;19112;51.076;3.706;2024-03-02T13:54:44;15.57;;;2.88;;
32734;SDS011;19112;51.076;3.706;2024-03-02T13:57:15;10.80;;;3.03;;
32734;SDS011;19112;51.076;3.706;2024-03-02T13:59:45;17.98;;;3.53;;
32734;SDS011;19112;51.076;3.706;2024-03-02T14:02:15;10.65;;;2.78;;
32734;SDS011;19112;51.076;3.706;2024-03-02T14:04:42;12.63;;;2.90;;
32734;SDS011;19112;51.076;3.706;2024-03-02T14:07:08;12.18;;;2.83;;
32734;SDS011;19112;51.076;3.706;2024-03-02T14:12:05;13.23;;;2.85;;
32734;SDS011;19112;51.076;3.706;2024-03-02T14:14:32;15.65;;;2.78;;
32734;SDS011;19112;51.076;3.706;2024-03-02T14:16:58;9.23;;;2.53;;
32734;SDS011;19112;51.076;3.706;2024-03-02T14:19:28;9.07;;;3.08;;
32734;SDS011;19112;51.076;3.706;2024-03-02T14:21:54;17.08;;;2.83;;
32734;SDS011;19112;51.076;3.706;2024-03-02T14:24:21;16.63;;;3.08;;
32734;SDS011;19112;51.076;3.706;2024-03-02T14:26:50;15.13;;;3.67;;
32734;SDS011;19112;51.076;3.706;2024-03-02T14:29:19;14.23;;;3.05;;
32734;SDS011;19112;51.076;3.706;2024-03-02T14:31:45;13.48;;;3.63;;
32734;SDS011;19112;51.076;3.706;2024-03-02T14:34:13;11.80;;;3.20;;
32734;SDS011;19112;51.076;3.706;2024-03-02T14:36:40;11.50;;;3.33;;
32734;SDS011;19112;51.076;3.706;2024-03-02T14:39:08;14.02;;;3.13;;
32734;SDS011;19112;51.076;3.706;2024-03-02T14:41:38;21.77;;;7.38;;
32734;SDS011;19112;51.076;3.706;2024-03-02T14:44:04;18.27;;;6.57;;
32734;SDS011;19112;51.076;3.706;2024-03-02T14:46:31;40.33;;;20.73;;
32734;SDS011;19112;51.076;3.706;2024-03-02T14:48:58;20.55;;;5.80;;
32734;SDS011;19112;51.076;3.706;2024-03-02T14:51:24;24.27;;;9.95;;
32734;SDS011;19112;51.076;3.706;2024-03-02T14:53:50;21.10;;;7.95;;
32734;SDS011;19112;51.076;3.706;2024-03-02T14:56:17;31.98;;;17.70;;
32734;SDS011;19112;51.076;3.706;2024-03-02T14:58:42;25.38;;;13.40;;
32734;SDS011;19112;51.076;3.706;2024-03-02T15:01:08;24.77;;;11.48;;
32734;SDS011;19112;51.076;3.706;2024-03-02T15:03:34;28.63;;;9.20;;
32734;SDS011;19112;51.076;3.706;2024-03-02T15:06:01;19.52;;;10.60;;
32734;SDS011;19112;51.076;3.706;2024-03-02T15:08:29;26.23;;;10.52;;
32734;SDS011;19112;51.076;3.706;2024-03-02T15:10:55;24.00;;;10.55;;
32734;SDS011;19112;51.076;3.706;2024-03-02T15:13:22;15.93;;;5.88;;
32734;SDS011;19112;51.076;3.706;2024-03-02T15:15:49;16.55;;;6.97;;
32734;SDS011;19112;51.076;3.706;2024-03-02T15:18:15;13.50;;;4.07;;
32734;SDS011;19112;51.076;3.706;2024-03-02T15:20:41;14.90;;;5.32;;
32734;SDS011;19112;51.076;3.706;2024-03-02T15:23:08;14.40;;;4.60;;
32734;SDS011;19112;51.076;3.706;2024-03-02T15:25:34;12.63;;;5.00;;
32734;SDS011;19112;51.076;3.706;2024-03-02T15:28:01;20.33;;;8.27;;